sensor_id;sensor_type;location;lat;lon;timestamp;P1;durP1;ratioP1;P2;durP2;ratioP2
49860;SDS011;35761;48.826;9.238;2023-04-28T00:02:17;7.22;;;3.75;;
49860;SDS011;35761;48.826;9.238;2023-04-28T00:04:47;7.32;;;3.42;;
49860;SDS011;35761;48.826;9.238;2023-04-28T00:07:18;13.00;;;3.20;;
49860;SDS011;35761;48.826;9.238;2023-04-28T00:09:49;7.32;;;3.20;;
49860;SDS011;35761;48.826;9.238;2023-04-28T00:12:22;7.22;;;3.00;;
49860;SDS011;35761;48.826;9.238;2023-04-28T00:14:52;6.55;;;2.97;;
49860;SDS011;35761;48.826;9.238;2023-04-28T00:17:23;8.75;;;3.05;;
49860;SDS011;35761;48.826;9.238;2023-04-28T00:19:53;7.53;;;3.25;;
49860;SDS011;35761;48.826;9.238;2023-04-28T00:22:24;9.43;;;3.20;;
49860;SDS011;35761;48.826;9.238;2023-04-28T00:24:55;6.72;;;2.95;;
49860;SDS011;35761;48.826;9.238;2023-04-28T00:27:28;8.07;;;3.20;;
49860;SDS011;35761;48.826;9.238;2023-04-28T00:29:59;9.70;;;3.10;;
49860;SDS011;35761;48.826;9.238;2023-04-28T00:32:31;10.18;;;3.63;;
49860;SDS011;35761;48.826;9.238;2023-04-28T00:35:03;12.32;;;3.30;;
49860;SDS011;35761;48.826;9.238;2023-04-28T00:37:35;8.57;;;3.97;;
49860;SDS011;35761;48.826;9.238;2023-04-28T00:40:06;8.90;;;3.90;;
49860;SDS011;35761;48.826;9.238;2023-04-28T00:42:40;9.38;;;3.33;;
49860;SDS011;35761;48.826;9.238;2023-04-28T00:45:11;7.50;;;3.33;;
49860;SDS011;35761;48.826;9.238;2023-04-28T00:47:41;9.65;;;3.50;;
49860;SDS011;35761;48.826;9.238;2023-04-28T00:50:12;8.60;;;3.40;;
49860;SDS011;35761;48.826;9.238;2023-04-28T00:52:42;5.97;;;3.17;;
49860;SDS011;35761;48.826;9.238;2023-04-28T00:55:14;6.70;;;3.42;;
49860;SDS011;35761;48.826;9.238;2023-04-28T00:57:47;10.50;;;3.58;;
49860;SDS011;35761;48.826;9.238;2023-04-28T01:00:19;12.97;;;3.03;;
49860;SDS011;35761;48.826;9.238;2023-04-28T01:02:49;7.93;;;3.35;;
49860;SDS011;35761;48.826;9.238;2023-04-28T01:05:24;9.85;;;3.20;;
49860;SDS011;35761;48.826;9.238;2023-04-28T01:07:58;8.00;;;3.72;;
49860;SDS011;35761;48.826;9.238;2023-04-28T01:10:28;6.55;;;3.50;;
49860;SDS011;35761;48.826;9.238;2023-04-28T01:13:09;11.48;;;4.28;;
49860;SDS011;35761;48.826;9.238;2023-04-28T01:15:39;5.55;;;3.45;;
49860;SDS011;35761;48.826;9.238;2023-04-28T01:18:10;11.68;;;3.95;;
49860;SDS011;35761;48.826;9.238;2023-04-28T01:20:41;10.52;;;3.67;;
49860;SDS011;35761;48.826;9.238;2023-04-28T01:23:11;9.98;;;3.70;;
49860;SDS011;35761;48.826;9.238;2023-04-28T01:25:45;6.97;;;3.70;;
49860;SDS011;35761;48.826;9.238;2023-04-28T01:28:16;8.70;;;3.58;;
49860;SDS011;35761;48.826;9.238;2023-04-28T01:30:46;8.75;;;3.45;;
49860;SDS011;35761;48.826;9.238;2023-04-28T01:33:17;5.53;;;2.83;;
49860;SDS011;35761;48.826;9.238;2023-04-28T01:35:47;9.00;;;3.00;;
49860;SDS011;35761;48.826;9.238;2023-04-28T01:38:17;5.90;;;3.20;;
49860;SDS011;35761;48.826;9.238;2023-04-28T01:40:51;7.45;;;2.92;;
49860;SDS011;35761;48.826;9.238;2023-04-28T01:43:24;8.27;;;3.55;;
49860;SDS011;35761;48.826;9.238;2023-04-28T01:45:57;6.38;;;3.80;;
49860;SDS011;35761;48.826;9.238;2023-04-28T01:48:30;11.32;;;4.20;;
49860;SDS011;35761;48.826;9.238;2023-04-28T01:51:00;8.32;;;3.85;;
49860;SDS011;35761;48.826;9.238;2023-04-28T01:53:31;7.63;;;3.92;;
49860;SDS011;35761;48.826;9.238;2023-04-28T01:59:05;8.63;;;3.97;;
49860;SDS011;35761;48.826;9.238;2023-04-28T02:01:36;8.63;;;4.07;;
49860;SDS011;35761;48.826;9.238;2023-04-28T02:04:07;7.25;;;4.38;;
49860;SDS011;35761;48.826;9.238;2023-04-28T02:06:37;11.68;;;5.15;;
49860;SDS011;35761;48.826;9.238;2023-04-28T02:09:11;8.20;;;4.68;;
49860;SDS011;35761;48.826;9.238;2023-04-28T02:11:45;12.45;;;5.05;;
49860;SDS011;35761;48.826;9.238;2023-04-28T02:14:15;11.15;;;4.57;;
49860;SDS011;35761;48.826;9.238;2023-04-28T02:16:46;8.13;;;4.53;;
49860;SDS011;35761;48.826;9.238;2023-04-28T02:19:16;11.40;;;4.32;;
49860;SDS011;35761;48.826;9.238;2023-04-28T02:21:46;8.13;;;4.13;;
49860;SDS011;35761;48.826;9.238;2023-04-28T02:24:17;12.52;;;4.10;;
49860;SDS011;35761;48.826;9.238;2023-04-28T02:26:51;8.50;;;3.95;;
49860;SDS011;35761;48.826;9.238;2023-04-28T02:29:26;9.48;;;4.78;;
49860;SDS011;35761;48.826;9.238;2023-04-28T02:31:57;8.30;;;4.88;;
49860;SDS011;35761;48.826;9.238;2023-04-28T02:34:29;9.30;;;4.60;;
49860;SDS011;35761;48.826;9.238;2023-04-28T02:37:00;11.40;;;4.38;;
49860;SDS011;35761;48.826;9.238;2023-04-28T02:39:31;8.10;;;4.40;;
49860;SDS011;35761;48.826;9.238;2023-04-28T02:42:04;9.25;;;3.88;;
49860;SDS011;35761;48.826;9.238;2023-04-28T02:44:35;10.15;;;3.97;;
49860;SDS011;35761;48.826;9.238;2023-04-28T02:47:06;9.75;;;3.90;;
49860;SDS011;35761;48.826;9.238;2023-04-28T02:49:38;6.28;;;3.22;;
49860;SDS011;35761;48.826;9.238;2023-04-28T02:52:09;10.90;;;3.28;;
49860;SDS011;35761;48.826;9.238;2023-04-28T02:54:39;8.93;;;3.45;;
49860;SDS011;35761;48.826;9.238;2023-04-28T02:57:18;9.73;;;3.47;;
49860;SDS011;35761;48.826;9.238;2023-04-28T02:59:48;9.00;;;3.63;;
49860;SDS011;35761;48.826;9.238;2023-04-28T03:02:19;7.85;;;3.65;;
49860;SDS011;35761;48.826;9.238;2023-04-28T03:04:50;8.80;;;3.90;;
49860;SDS011;35761;48.826;9.238;2023-04-28T03:07:21;6.80;;;3.60;;
49860;SDS011;35761;48.826;9.238;2023-04-28T03:09:51;7.00;;;3.40;;
49860;SDS011;35761;48.826;9.238;2023-04-28T03:12:24;5.85;;;3.30;;
49860;SDS011;35761;48.826;9.238;2023-04-28T03:14:55;13.02;;;4.18;;
49860;SDS011;35761;48.826;9.238;2023-04-28T03:17:26;7.32;;;3.50;;
49860;SDS011;35761;48.826;9.238;2023-04-28T03:19:57;5.57;;;3.40;;
49860;SDS011;35761;48.826;9.238;2023-04-28T03:22:28;9.85;;;4.00;;
49860;SDS011;35761;48.826;9.238;2023-04-28T03:24:59;15.15;;;4.25;;
49860;SDS011;35761;48.826;9.238;2023-04-28T03:27:35;7.20;;;4.22;;
49860;SDS011;35761;48.826;9.238;2023-04-28T03:30:06;5.15;;;3.40;;
49860;SDS011;35761;48.826;9.238;2023-04-28T03:32:37;9.45;;;4.72;;
49860;SDS011;35761;48.826;9.238;2023-04-28T03:35:08;6.82;;;3.70;;
49860;SDS011;35761;48.826;9.238;2023-04-28T03:37:40;8.20;;;4.32;;
49860;SDS011;35761;48.826;9.238;2023-04-28T03:40:10;9.98;;;3.85;;
49860;SDS011;35761;48.826;9.238;2023-04-28T03:43:10;7.28;;;3.80;;
49860;SDS011;35761;48.826;9.238;2023-04-28T03:46:07;8.70;;;4.20;;
49860;SDS011;35761;48.826;9.238;2023-04-28T03:48:38;8.20;;;3.80;;
49860;SDS011;35761;48.826;9.238;2023-04-28T03:51:09;7.90;;;4.03;;
49860;SDS011;35761;48.826;9.238;2023-04-28T03:53:40;6.47;;;4.30;;
49860;SDS011;35761;48.826;9.238;2023-04-28T03:56:13;10.20;;;3.85;;
49860;SDS011;35761;48.826;9.238;2023-04-28T03:58:50;8.20;;;4.38;;
49860;SDS011;35761;48.826;9.238;2023-04-28T04:01:21;9.23;;;4.07;;
49860;SDS011;35761;48.826;9.238;2023-04-28T04:03:52;9.65;;;5.28;;
49860;SDS011;35761;48.826;9.238;2023-04-28T04:06:22;8.73;;;5.88;;
49860;SDS011;35761;48.826;9.238;2023-04-28T04:08:53;14.65;;;7.20;;
49860;SDS011;35761;48.826;9.238;2023-04-28T04:11:24;7.75;;;4.28;;
49860;SDS011;35761;48.826;9.238;2023-04-28T04:13:57;11.07;;;3.90;;
49860;SDS011;35761;48.826;9.238;2023-04-28T04:16:28;7.60;;;3.92;;
49860;SDS011;35761;48.826;9.238;2023-04-28T04:18:59;6.45;;;3.40;;
49860;SDS011;35761;48.826;9.238;2023-04-28T04:21:35;5.97;;;3.42;;
49860;SDS011;35761;48.826;9.238;2023-04-28T04:24:07;6.13;;;3.97;;
49860;SDS011;35761;48.826;9.238;2023-04-28T04:26:38;9.38;;;4.88;;
49860;SDS011;35761;48.826;9.238;2023-04-28T04:29:28;7.80;;;3.92;;
49860;SDS011;35761;48.826;9.238;2023-04-28T04:32:02;7.60;;;4.55;;
49860;SDS011;35761;48.826;9.238;2023-04-28T04:34:33;6.82;;;3.70;;
49860;SDS011;35761;48.826;9.238;2023-04-28T04:37:04;7.45;;;3.88;;
49860;SDS011;35761;48.826;9.238;2023-04-28T04:39:40;6.88;;;3.78;;
49860;SDS011;35761;48.826;9.238;2023-04-28T04:42:10;7.63;;;3.80;;
49860;SDS011;35761;48.826;9.238;2023-04-28T04:45:05;20.83;;;12.73;;
49860;SDS011;35761;48.826;9.238;2023-04-28T04:47:38;18.85;;;10.43;;
49860;SDS011;35761;48.826;9.238;2023-04-28T04:50:10;9.98;;;5.40;;
49860;SDS011;35761;48.826;9.238;2023-04-28T04:52:41;7.97;;;3.35;;
49860;SDS011;35761;48.826;9.238;2023-04-28T04:55:11;7.35;;;3.33;;
49860;SDS011;35761;48.826;9.238;2023-04-28T04:57:42;5.55;;;3.17;;
49860;SDS011;35761;48.826;9.238;2023-04-28T05:00:30;8.25;;;3.90;;
49860;SDS011;35761;48.826;9.238;2023-04-28T05:03:01;6.50;;;3.57;;
49860;SDS011;35761;48.826;9.238;2023-04-28T05:05:35;9.73;;;4.22;;
49860;SDS011;35761;48.826;9.238;2023-04-28T05:08:17;11.63;;;6.72;;
49860;SDS011;35761;48.826;9.238;2023-04-28T05:10:48;10.07;;;5.82;;
49860;SDS011;35761;48.826;9.238;2023-04-28T05:13:18;6.75;;;4.18;;
49860;SDS011;35761;48.826;9.238;2023-04-28T05:15:58;7.25;;;3.28;;
49860;SDS011;35761;48.826;9.238;2023-04-28T05:18:44;6.88;;;2.97;;
49860;SDS011;35761;48.826;9.238;2023-04-28T05:21:15;7.38;;;3.40;;
49860;SDS011;35761;48.826;9.238;2023-04-28T05:23:47;6.30;;;3.30;;
49860;SDS011;35761;48.826;9.238;2023-04-28T05:26:18;5.30;;;3.10;;
49860;SDS011;35761;48.826;9.238;2023-04-28T05:28:51;6.82;;;3.30;;
49860;SDS011;35761;48.826;9.238;2023-04-28T05:31:26;7.28;;;3.50;;
49860;SDS011;35761;48.826;9.238;2023-04-28T05:33:58;10.43;;;3.63;;
49860;SDS011;35761;48.826;9.238;2023-04-28T05:36:28;7.82;;;3.53;;
49860;SDS011;35761;48.826;9.238;2023-04-28T05:38:59;8.25;;;3.95;;
49860;SDS011;35761;48.826;9.238;2023-04-28T05:41:30;6.85;;;3.97;;
49860;SDS011;35761;48.826;9.238;2023-04-28T05:44:00;7.18;;;4.07;;
49860;SDS011;35761;48.826;9.238;2023-04-28T05:46:34;8.25;;;4.18;;
49860;SDS011;35761;48.826;9.238;2023-04-28T05:49:06;10.00;;;4.07;;
49860;SDS011;35761;48.826;9.238;2023-04-28T05:51:38;9.82;;;4.20;;
49860;SDS011;35761;48.826;9.238;2023-04-28T05:54:10;8.00;;;4.13;;
49860;SDS011;35761;48.826;9.238;2023-04-28T05:56:44;7.20;;;4.35;;
49860;SDS011;35761;48.826;9.238;2023-04-28T05:59:16;6.25;;;3.97;;
49860;SDS011;35761;48.826;9.238;2023-04-28T06:01:49;11.10;;;4.65;;
49860;SDS011;35761;48.826;9.238;2023-04-28T06:04:20;7.15;;;4.28;;
49860;SDS011;35761;48.826;9.238;2023-04-28T06:06:52;8.02;;;4.00;;
49860;SDS011;35761;48.826;9.238;2023-04-28T06:09:23;9.40;;;4.68;;
49860;SDS011;35761;48.826;9.238;2023-04-28T06:11:53;6.40;;;4.18;;
49860;SDS011;35761;48.826;9.238;2023-04-28T06:14:24;10.45;;;3.83;;
49860;SDS011;35761;48.826;9.238;2023-04-28T06:16:57;6.72;;;3.72;;
49860;SDS011;35761;48.826;9.238;2023-04-28T06:19:28;9.73;;;4.22;;
49860;SDS011;35761;48.826;9.238;2023-04-28T06:21:59;6.32;;;3.53;;
49860;SDS011;35761;48.826;9.238;2023-04-28T06:24:29;6.10;;;3.75;;
49860;SDS011;35761;48.826;9.238;2023-04-28T06:27:02;7.88;;;4.20;;
49860;SDS011;35761;48.826;9.238;2023-04-28T06:29:33;8.65;;;3.83;;
49860;SDS011;35761;48.826;9.238;2023-04-28T06:32:06;8.48;;;4.18;;
49860;SDS011;35761;48.826;9.238;2023-04-28T06:34:37;8.85;;;4.10;;
49860;SDS011;35761;48.826;9.238;2023-04-28T06:37:07;9.55;;;4.40;;
49860;SDS011;35761;48.826;9.238;2023-04-28T06:39:37;9.13;;;4.65;;
49860;SDS011;35761;48.826;9.238;2023-04-28T06:42:08;15.18;;;5.10;;
49860;SDS011;35761;48.826;9.238;2023-04-28T06:44:41;7.97;;;5.00;;
49860;SDS011;35761;48.826;9.238;2023-04-28T06:47:14;6.43;;;4.70;;
49860;SDS011;35761;48.826;9.238;2023-04-28T06:49:45;7.88;;;3.85;;
49860;SDS011;35761;48.826;9.238;2023-04-28T06:52:15;9.95;;;4.25;;
49860;SDS011;35761;48.826;9.238;2023-04-28T06:54:58;6.85;;;4.30;;
49860;SDS011;35761;48.826;9.238;2023-04-28T06:57:29;7.20;;;4.00;;
49860;SDS011;35761;48.826;9.238;2023-04-28T07:00:00;5.97;;;4.13;;
49860;SDS011;35761;48.826;9.238;2023-04-28T07:05:07;8.68;;;4.18;;
49860;SDS011;35761;48.826;9.238;2023-04-28T07:07:41;6.40;;;3.92;;
49860;SDS011;35761;48.826;9.238;2023-04-28T07:10:12;7.07;;;4.20;;
49860;SDS011;35761;48.826;9.238;2023-04-28T07:12:42;6.80;;;4.40;;
49860;SDS011;35761;48.826;9.238;2023-04-28T07:15:13;7.65;;;4.25;;
49860;SDS011;35761;48.826;9.238;2023-04-28T07:17:46;9.32;;;4.90;;
49860;SDS011;35761;48.826;9.238;2023-04-28T07:20:17;6.85;;;4.50;;
49860;SDS011;35761;48.826;9.238;2023-04-28T07:22:47;8.80;;;5.20;;
49860;SDS011;35761;48.826;9.238;2023-04-28T07:25:18;9.18;;;5.03;;
49860;SDS011;35761;48.826;9.238;2023-04-28T07:27:48;8.32;;;4.93;;
49860;SDS011;35761;48.826;9.238;2023-04-28T07:30:20;9.40;;;5.07;;
49860;SDS011;35761;48.826;9.238;2023-04-28T07:32:56;6.20;;;4.20;;
49860;SDS011;35761;48.826;9.238;2023-04-28T07:35:27;9.93;;;3.97;;
49860;SDS011;35761;48.826;9.238;2023-04-28T07:37:58;7.03;;;4.28;;
49860;SDS011;35761;48.826;9.238;2023-04-28T07:40:28;8.32;;;4.35;;
49860;SDS011;35761;48.826;9.238;2023-04-28T07:42:59;7.28;;;4.50;;
49860;SDS011;35761;48.826;9.238;2023-04-28T07:45:29;5.85;;;3.90;;
49860;SDS011;35761;48.826;9.238;2023-04-28T07:48:03;8.07;;;4.55;;
49860;SDS011;35761;48.826;9.238;2023-04-28T07:50:34;9.18;;;4.57;;
49860;SDS011;35761;48.826;9.238;2023-04-28T07:53:04;7.30;;;4.07;;
49860;SDS011;35761;48.826;9.238;2023-04-28T07:55:35;6.80;;;4.47;;
49860;SDS011;35761;48.826;9.238;2023-04-28T07:58:07;8.30;;;4.65;;
49860;SDS011;35761;48.826;9.238;2023-04-28T08:00:38;7.43;;;4.32;;
49860;SDS011;35761;48.826;9.238;2023-04-28T08:03:11;7.70;;;4.95;;
49860;SDS011;35761;48.826;9.238;2023-04-28T08:05:42;11.00;;;4.97;;
49860;SDS011;35761;48.826;9.238;2023-04-28T08:08:13;6.90;;;5.13;;
49860;SDS011;35761;48.826;9.238;2023-04-28T08:10:44;8.73;;;4.72;;
49860;SDS011;35761;48.826;9.238;2023-04-28T08:13:16;9.02;;;5.38;;
49860;SDS011;35761;48.826;9.238;2023-04-28T08:15:46;11.32;;;8.43;;
49860;SDS011;35761;48.826;9.238;2023-04-28T08:18:20;13.80;;;8.13;;
49860;SDS011;35761;48.826;9.238;2023-04-28T08:20:51;15.20;;;5.97;;
49860;SDS011;35761;48.826;9.238;2023-04-28T08:23:21;8.18;;;4.97;;
49860;SDS011;35761;48.826;9.238;2023-04-28T08:25:53;10.45;;;5.55;;
49860;SDS011;35761;48.826;9.238;2023-04-28T08:28:24;8.80;;;4.40;;
49860;SDS011;35761;48.826;9.238;2023-04-28T08:30:55;10.63;;;4.97;;
49860;SDS011;35761;48.826;9.238;2023-04-28T08:33:29;7.97;;;4.55;;
49860;SDS011;35761;48.826;9.238;2023-04-28T08:35:59;8.30;;;5.20;;
49860;SDS011;35761;48.826;9.238;2023-04-28T08:38:30;10.55;;;5.18;;
49860;SDS011;35761;48.826;9.238;2023-04-28T08:41:02;6.70;;;4.07;;
49860;SDS011;35761;48.826;9.238;2023-04-28T08:43:33;10.77;;;4.63;;
49860;SDS011;35761;48.826;9.238;2023-04-28T08:46:06;8.15;;;4.32;;
49860;SDS011;35761;48.826;9.238;2023-04-28T08:48:40;8.85;;;4.50;;
49860;SDS011;35761;48.826;9.238;2023-04-28T08:51:14;8.55;;;4.78;;
49860;SDS011;35761;48.826;9.238;2023-04-28T08:53:54;7.85;;;4.60;;
49860;SDS011;35761;48.826;9.238;2023-04-28T08:59:20;9.68;;;4.50;;
49860;SDS011;35761;48.826;9.238;2023-04-28T09:01:51;7.30;;;4.55;;
49860;SDS011;35761;48.826;9.238;2023-04-28T09:04:25;6.20;;;4.00;;
49860;SDS011;35761;48.826;9.238;2023-04-28T09:06:56;6.45;;;3.65;;
49860;SDS011;35761;48.826;9.238;2023-04-28T09:09:27;7.03;;;4.03;;
49860;SDS011;35761;48.826;9.238;2023-04-28T09:12:03;8.75;;;4.38;;
49860;SDS011;35761;48.826;9.238;2023-04-28T09:14:35;9.43;;;4.32;;
49860;SDS011;35761;48.826;9.238;2023-04-28T09:17:10;10.65;;;4.93;;
49860;SDS011;35761;48.826;9.238;2023-04-28T09:19:45;6.45;;;4.93;;
49860;SDS011;35761;48.826;9.238;2023-04-28T09:22:15;8.98;;;5.05;;
49860;SDS011;35761;48.826;9.238;2023-04-28T09:24:50;11.77;;;5.10;;
49860;SDS011;35761;48.826;9.238;2023-04-28T09:27:25;7.68;;;5.05;;
49860;SDS011;35761;48.826;9.238;2023-04-28T09:32:26;5.95;;;4.50;;
49860;SDS011;35761;48.826;9.238;2023-04-28T09:35:00;7.53;;;4.70;;
49860;SDS011;35761;48.826;9.238;2023-04-28T09:37:33;9.00;;;4.75;;
49860;SDS011;35761;48.826;9.238;2023-04-28T09:40:05;9.05;;;5.18;;
49860;SDS011;35761;48.826;9.238;2023-04-28T09:42:38;8.37;;;5.00;;
49860;SDS011;35761;48.826;9.238;2023-04-28T09:45:12;8.93;;;5.07;;
49860;SDS011;35761;48.826;9.238;2023-04-28T09:47:44;9.45;;;4.85;;
49860;SDS011;35761;48.826;9.238;2023-04-28T09:50:18;8.85;;;4.93;;
49860;SDS011;35761;48.826;9.238;2023-04-28T09:52:54;6.80;;;4.30;;
49860;SDS011;35761;48.826;9.238;2023-04-28T09:55:26;7.05;;;4.47;;
49860;SDS011;35761;48.826;9.238;2023-04-28T09:57:59;5.55;;;4.30;;
49860;SDS011;35761;48.826;9.238;2023-04-28T10:00:34;6.15;;;4.43;;
49860;SDS011;35761;48.826;9.238;2023-04-28T10:03:07;24.00;;;14.20;;
49860;SDS011;35761;48.826;9.238;2023-04-28T10:05:41;14.80;;;6.53;;
49860;SDS011;35761;48.826;9.238;2023-04-28T10:08:13;9.52;;;5.60;;
49860;SDS011;35761;48.826;9.238;2023-04-28T10:10:45;6.75;;;4.60;;
49860;SDS011;35761;48.826;9.238;2023-04-28T10:13:19;9.43;;;4.57;;
49860;SDS011;35761;48.826;9.238;2023-04-28T10:15:51;7.25;;;3.97;;
49860;SDS011;35761;48.826;9.238;2023-04-28T10:18:24;6.05;;;4.10;;
49860;SDS011;35761;48.826;9.238;2023-04-28T10:20:59;6.22;;;4.35;;
49860;SDS011;35761;48.826;9.238;2023-04-28T10:23:40;5.07;;;4.00;;
49860;SDS011;35761;48.826;9.238;2023-04-28T10:26:34;7.00;;;4.50;;
49860;SDS011;35761;48.826;9.238;2023-04-28T10:29:34;8.23;;;5.07;;
49860;SDS011;35761;48.826;9.238;2023-04-28T10:32:17;8.05;;;4.68;;
49860;SDS011;35761;48.826;9.238;2023-04-28T10:34:52;8.00;;;4.97;;
49860;SDS011;35761;48.826;9.238;2023-04-28T10:38:07;9.82;;;5.32;;
49860;SDS011;35761;48.826;9.238;2023-04-28T10:40:40;9.88;;;5.10;;
49860;SDS011;35761;48.826;9.238;2023-04-28T10:43:12;7.40;;;4.70;;
49860;SDS011;35761;48.826;9.238;2023-04-28T10:46:03;9.40;;;5.22;;
49860;SDS011;35761;48.826;9.238;2023-04-28T10:51:28;5.05;;;3.55;;
49860;SDS011;35761;48.826;9.238;2023-04-28T10:54:09;5.47;;;3.28;;
49860;SDS011;35761;48.826;9.238;2023-04-28T10:59:48;5.82;;;2.92;;
49860;SDS011;35761;48.826;9.238;2023-04-28T11:05:17;5.80;;;3.72;;
49860;SDS011;35761;48.826;9.238;2023-04-28T11:14:33;5.80;;;3.83;;
49860;SDS011;35761;48.826;9.238;2023-04-28T11:17:06;5.63;;;3.65;;
49860;SDS011;35761;48.826;9.238;2023-04-28T11:19:40;5.95;;;3.60;;
49860;SDS011;35761;48.826;9.238;2023-04-28T11:22:15;2.90;;;1.80;;
49860;SDS011;35761;48.826;9.238;2023-04-28T11:24:54;1.13;;;0.85;;
49860;SDS011;35761;48.826;9.238;2023-04-28T11:27:26;4.10;;;0.90;;
49860;SDS011;35761;48.826;9.238;2023-04-28T11:30:01;1.63;;;0.80;;
49860;SDS011;35761;48.826;9.238;2023-04-28T11:32:34;1.05;;;0.80;;
49860;SDS011;35761;48.826;9.238;2023-04-28T11:35:06;3.63;;;0.73;;
49860;SDS011;35761;48.826;9.238;2023-04-28T11:37:37;4.45;;;0.80;;
49860;SDS011;35761;48.826;9.238;2023-04-28T11:40:10;1.40;;;0.95;;
49860;SDS011;35761;48.826;9.238;2023-04-28T11:42:46;0.82;;;0.82;;
49860;SDS011;35761;48.826;9.238;2023-04-28T11:45:19;1.20;;;0.70;;
49860;SDS011;35761;48.826;9.238;2023-04-28T11:47:50;1.60;;;0.70;;
49860;SDS011;35761;48.826;9.238;2023-04-28T11:50:34;2.72;;;0.82;;
49860;SDS011;35761;48.826;9.238;2023-04-28T11:53:05;1.40;;;1.10;;
49860;SDS011;35761;48.826;9.238;2023-04-28T11:55:35;2.83;;;0.85;;
49860;SDS011;35761;48.826;9.238;2023-04-28T11:58:18;1.33;;;1.08;;
49860;SDS011;35761;48.826;9.238;2023-04-28T12:03:42;5.10;;;0.93;;
49860;SDS011;35761;48.826;9.238;2023-04-28T12:06:15;1.92;;;1.20;;
49860;SDS011;35761;48.826;9.238;2023-04-28T12:08:47;2.45;;;1.08;;
49860;SDS011;35761;48.826;9.238;2023-04-28T12:11:18;1.25;;;0.82;;
49860;SDS011;35761;48.826;9.238;2023-04-28T12:14:04;2.97;;;0.77;;
49860;SDS011;35761;48.826;9.238;2023-04-28T12:16:39;1.90;;;1.00;;
49860;SDS011;35761;48.826;9.238;2023-04-28T12:19:14;0.88;;;0.80;;
49860;SDS011;35761;48.826;9.238;2023-04-28T12:22:02;1.70;;;1.02;;
49860;SDS011;35761;48.826;9.238;2023-04-28T12:24:34;0.88;;;0.73;;
49860;SDS011;35761;48.826;9.238;2023-04-28T12:27:15;1.40;;;1.00;;
49860;SDS011;35761;48.826;9.238;2023-04-28T12:29:47;1.45;;;0.88;;
49860;SDS011;35761;48.826;9.238;2023-04-28T12:32:35;3.20;;;1.15;;
49860;SDS011;35761;48.826;9.238;2023-04-28T12:35:08;2.90;;;1.20;;
49860;SDS011;35761;48.826;9.238;2023-04-28T12:37:38;2.20;;;0.82;;
49860;SDS011;35761;48.826;9.238;2023-04-28T12:40:10;1.60;;;1.13;;
49860;SDS011;35761;48.826;9.238;2023-04-28T12:42:41;2.33;;;1.23;;
49860;SDS011;35761;48.826;9.238;2023-04-28T12:45:11;5.03;;;1.15;;
49860;SDS011;35761;48.826;9.238;2023-04-28T12:47:45;5.30;;;0.80;;
49860;SDS011;35761;48.826;9.238;2023-04-28T12:50:15;3.28;;;0.90;;
49860;SDS011;35761;48.826;9.238;2023-04-28T12:52:46;0.98;;;0.90;;
49860;SDS011;35761;48.826;9.238;2023-04-28T12:55:16;2.42;;;0.88;;
49860;SDS011;35761;48.826;9.238;2023-04-28T12:57:47;0.85;;;0.70;;
49860;SDS011;35761;48.826;9.238;2023-04-28T13:00:17;3.90;;;0.77;;
49860;SDS011;35761;48.826;9.238;2023-04-28T13:02:53;1.20;;;0.80;;
49860;SDS011;35761;48.826;9.238;2023-04-28T13:05:24;1.80;;;0.80;;
49860;SDS011;35761;48.826;9.238;2023-04-28T13:07:55;3.90;;;1.02;;
49860;SDS011;35761;48.826;9.238;2023-04-28T13:10:26;2.25;;;1.40;;
49860;SDS011;35761;48.826;9.238;2023-04-28T13:12:57;1.83;;;0.77;;
49860;SDS011;35761;48.826;9.238;2023-04-28T13:15:27;7.85;;;0.82;;
49860;SDS011;35761;48.826;9.238;2023-04-28T13:18:02;5.00;;;0.90;;
49860;SDS011;35761;48.826;9.238;2023-04-28T13:20:33;1.88;;;0.90;;
49860;SDS011;35761;48.826;9.238;2023-04-28T13:23:03;4.20;;;0.80;;
49860;SDS011;35761;48.826;9.238;2023-04-28T13:25:34;0.63;;;0.60;;
49860;SDS011;35761;48.826;9.238;2023-04-28T13:28:04;2.63;;;0.95;;
49860;SDS011;35761;48.826;9.238;2023-04-28T13:30:35;3.08;;;0.70;;
49860;SDS011;35761;48.826;9.238;2023-04-28T13:33:08;1.42;;;0.80;;
49860;SDS011;35761;48.826;9.238;2023-04-28T13:35:38;2.55;;;1.17;;
49860;SDS011;35761;48.826;9.238;2023-04-28T13:38:09;2.38;;;0.90;;
49860;SDS011;35761;48.826;9.238;2023-04-28T13:40:39;1.40;;;0.80;;
49860;SDS011;35761;48.826;9.238;2023-04-28T13:43:10;2.25;;;0.82;;
49860;SDS011;35761;48.826;9.238;2023-04-28T13:45:40;2.38;;;0.82;;
49860;SDS011;35761;48.826;9.238;2023-04-28T13:48:14;3.83;;;0.90;;
49860;SDS011;35761;48.826;9.238;2023-04-28T13:50:45;5.65;;;1.60;;
49860;SDS011;35761;48.826;9.238;2023-04-28T13:53:16;10.15;;;4.50;;
49860;SDS011;35761;48.826;9.238;2023-04-28T13:55:48;3.45;;;2.15;;
49860;SDS011;35761;48.826;9.238;2023-04-28T13:58:23;2.80;;;1.13;;
49860;SDS011;35761;48.826;9.238;2023-04-28T14:00:53;3.53;;;1.00;;
49860;SDS011;35761;48.826;9.238;2023-04-28T14:03:28;1.98;;;0.93;;
49860;SDS011;35761;48.826;9.238;2023-04-28T14:05:59;2.43;;;0.93;;
49860;SDS011;35761;48.826;9.238;2023-04-28T14:08:30;3.38;;;1.55;;
49860;SDS011;35761;48.826;9.238;2023-04-28T14:11:01;2.47;;;0.93;;
49860;SDS011;35761;48.826;9.238;2023-04-28T14:13:31;2.38;;;1.17;;
49860;SDS011;35761;48.826;9.238;2023-04-28T14:16:02;1.85;;;0.90;;
49860;SDS011;35761;48.826;9.238;2023-04-28T14:18:35;3.55;;;1.33;;
49860;SDS011;35761;48.826;9.238;2023-04-28T14:21:06;5.37;;;1.17;;
49860;SDS011;35761;48.826;9.238;2023-04-28T14:23:37;4.38;;;1.25;;
49860;SDS011;35761;48.826;9.238;2023-04-28T14:26:08;3.28;;;1.33;;
49860;SDS011;35761;48.826;9.238;2023-04-28T14:28:38;4.75;;;1.80;;
49860;SDS011;35761;48.826;9.238;2023-04-28T14:31:09;4.18;;;1.38;;
49860;SDS011;35761;48.826;9.238;2023-04-28T14:33:42;5.25;;;1.55;;
49860;SDS011;35761;48.826;9.238;2023-04-28T14:36:12;3.08;;;1.30;;
49860;SDS011;35761;48.826;9.238;2023-04-28T14:38:43;5.82;;;1.20;;
49860;SDS011;35761;48.826;9.238;2023-04-28T14:41:13;3.58;;;1.52;;
49860;SDS011;35761;48.826;9.238;2023-04-28T14:43:44;3.17;;;1.38;;
49860;SDS011;35761;48.826;9.238;2023-04-28T14:46:15;3.47;;;1.20;;
49860;SDS011;35761;48.826;9.238;2023-04-28T14:48:51;7.80;;;4.88;;
49860;SDS011;35761;48.826;9.238;2023-04-28T14:51:22;5.60;;;2.88;;
49860;SDS011;35761;48.826;9.238;2023-04-28T14:53:53;3.05;;;1.52;;
49860;SDS011;35761;48.826;9.238;2023-04-28T14:56:24;6.30;;;1.50;;
49860;SDS011;35761;48.826;9.238;2023-04-28T14:58:57;3.17;;;1.30;;
49860;SDS011;35761;48.826;9.238;2023-04-28T15:01:27;6.00;;;1.42;;
49860;SDS011;35761;48.826;9.238;2023-04-28T15:04:01;4.07;;;1.60;;
49860;SDS011;35761;48.826;9.238;2023-04-28T15:06:33;4.32;;;1.63;;
49860;SDS011;35761;48.826;9.238;2023-04-28T15:09:03;3.55;;;1.40;;
49860;SDS011;35761;48.826;9.238;2023-04-28T15:11:34;5.15;;;1.83;;
49860;SDS011;35761;48.826;9.238;2023-04-28T15:14:04;3.33;;;1.90;;
49860;SDS011;35761;48.826;9.238;2023-04-28T15:16:35;3.72;;;1.48;;
49860;SDS011;35761;48.826;9.238;2023-04-28T15:19:09;7.53;;;1.50;;
49860;SDS011;35761;48.826;9.238;2023-04-28T15:24:11;3.92;;;1.67;;
49860;SDS011;35761;48.826;9.238;2023-04-28T15:26:42;3.70;;;1.50;;
49860;SDS011;35761;48.826;9.238;2023-04-28T15:29:13;3.83;;;1.50;;
49860;SDS011;35761;48.826;9.238;2023-04-28T15:31:44;2.65;;;1.20;;
49860;SDS011;35761;48.826;9.238;2023-04-28T15:34:19;4.22;;;1.13;;
49860;SDS011;35761;48.826;9.238;2023-04-28T15:36:49;2.83;;;1.25;;
49860;SDS011;35761;48.826;9.238;2023-04-28T15:39:21;2.08;;;1.05;;
49860;SDS011;35761;48.826;9.238;2023-04-28T15:41:54;2.72;;;1.20;;
49860;SDS011;35761;48.826;9.238;2023-04-28T15:44:25;4.30;;;1.42;;
49860;SDS011;35761;48.826;9.238;2023-04-28T15:46:56;1.75;;;1.00;;
49860;SDS011;35761;48.826;9.238;2023-04-28T15:49:29;2.67;;;1.15;;
49860;SDS011;35761;48.826;9.238;2023-04-28T15:52:00;2.60;;;0.90;;